Aérodrome :
LOGIN :

S'inscrire | Disclaimer

   EN    FR    IT 

 










Légende :    VFR   VFR Marginal   IFR   IFR Intensif   IFR Très Intensif
Visi : 
Plafond : 
>= 8 km
>= 3000ft
5 à 8 km
1000 à 3000 ft
1500m à 5 km
500 à 1000 ft
800 à 1500m
200 à 500 ft
< 800m
< 200 ft
Symboles :   Orages  Brouillard  Fortes neiges  Fortes précipitations  Vent > 20 kt
SIGMETs :   Divers  Orages  Givrage  Turbulence  Onde Orograph.  Cendres Volcan.







- Altitude de l'aérodrome : 436 ft
- Code IATA : ANG
- Voir les cartes d'approche


LFBU - Angoulême Brie Champniers

DERNIER METAR :
  • 221630Z AUTO 26004KT 9999 FEW020 BKN034 BKN048 07/04 Q1007 TEMPO 3000 BR

METARs EXPIRÉS :
  • 221600Z AUTO 27004KT 9999 FEW036 OVC046 07/04 Q1007 NOSIG
  • 221530Z AUTO 31004KT 9999 SCT020 SCT052 OVC170 06/04 Q1007 NOSIG
  • 221500Z AUTO 32008KT 9999 BKN015 BKN020 OVC170 07/04 Q1007 NOSIG
  • 221430Z AUTO 31008KT 280V340 9999 BKN012 OVC020 06/05 Q1007 BECMG SCT020
  • 221400Z AUTO 29007KT 9999 BKN012 BKN130 05/04 Q1007 TEMPO 18010KT 4000 -RA BECMG SCT020

TAF AMD TAF LFBU
Valide du 22 à 12h jusqu'au 23 à 12h UTC


221142Z 2212/2312 18010KT 9999 OVC010
TEMPO 2212/2215 4000 -RA OVC005
BECMG 2215/2217 30008KT 9999 SCT020
PROB40 2218/2220 3000 BR
TEMPO 2221/2312 4000 -RA BKN010
Pas de NOTAMs connus pour ce terrain.



MET'MAP, la Météo Aéronautique d'un coup d'oeil ! - Copyright ORBIFLY Décembre 2007 - Disclaimer

ORBIFLY MET'MAP TEAM :

Programmation & Développement : Alexandra Zaïnal
Conception & Développement : Baudouin d'Aumeries
Co-Programmation & Développement : Marc-Olivier Méhu
Soutien technique & logistique : Manuel Goepfert

Contact : metmap@orbifly.com




SOURCES & CREDITS :

   NOAA